createdAt,value
2019-04-14T00:00:16.478Z,4.24
2019-04-14T00:02:55.466Z,4.23
2019-04-14T00:05:31.430Z,4.23
2019-04-14T00:08:02.685Z,4.18
2019-04-14T00:10:35.496Z,4.16
2019-04-14T00:13:08.976Z,4.12
2019-04-14T00:15:45.151Z,4.12
2019-04-14T00:18:16.447Z,4.14
2019-04-14T00:20:49.572Z,4.11
2019-04-14T00:23:22.256Z,4.13
2019-04-14T00:25:54.556Z,4.12
2019-04-14T00:28:27.715Z,4.11
2019-04-14T00:31:02.388Z,4.08
2019-04-14T00:33:35.114Z,4.06
2019-04-14T00:36:10.992Z,4.07
2019-04-14T00:38:46.012Z,4.05
2019-04-14T00:41:41.323Z,4.08
2019-04-14T00:44:14.551Z,4.08
2019-04-14T00:46:58.277Z,4.07
2019-04-14T00:49:31.171Z,4.10
2019-04-14T00:52:04.144Z,4.08
2019-04-14T00:54:39.210Z,4.07
2019-04-14T00:57:11.826Z,4.07
2019-04-14T00:59:44.106Z,4.09
2019-04-14T01:02:16.768Z,4.07
2019-04-14T01:04:51.229Z,4.10
2019-04-14T01:07:24.138Z,4.09
2019-04-14T01:09:57.526Z,4.05
2019-04-14T01:12:30.354Z,4.06
2019-04-14T01:15:05.001Z,4.09
2019-04-14T01:17:37.858Z,4.09
2019-04-14T01:20:10.736Z,4.09
2019-04-14T01:22:44.476Z,4.10
2019-04-14T01:25:17.332Z,4.10
2019-04-14T01:27:51.734Z,4.05
2019-04-14T01:30:24.188Z,4.08
2019-04-14T01:32:56.905Z,4.05
2019-04-14T01:35:29.599Z,4.10
2019-04-14T01:38:02.282Z,4.07
2019-04-14T01:40:35.938Z,4.12
2019-04-14T01:43:09.984Z,4.07
2019-04-14T01:45:43.123Z,4.10
2019-04-14T01:48:17.087Z,4.13
2019-04-14T01:50:51.676Z,4.11
2019-04-14T01:53:29.287Z,4.11
2019-04-14T01:56:16.506Z,4.11
2019-04-14T01:58:53.617Z,4.11
2019-04-14T02:01:30.577Z,4.12
2019-04-14T02:04:03.217Z,4.15
2019-04-14T02:06:35.833Z,4.16
2019-04-14T02:09:12.204Z,4.14
2019-04-14T02:11:44.888Z,4.17
2019-04-14T02:14:17.408Z,4.20
2019-04-14T02:16:55.242Z,4.26
2019-04-14T02:19:26.252Z,4.28
2019-04-14T02:21:58.831Z,4.27
2019-04-14T02:24:31.434Z,4.28
2019-04-14T02:27:03.681Z,4.28
2019-04-14T02:29:36.710Z,4.31
2019-04-14T02:32:47.178Z,4.32
2019-04-14T02:35:10.862Z,4.29
2019-04-14T02:37:45.504Z,4.32
2019-04-14T02:40:33.163Z,4.31
2019-04-14T02:42:54.236Z,4.35
2019-04-14T02:45:45.205Z,4.33
2019-04-14T02:53:15.657Z,4.41
2019-04-14T02:55:48.921Z,4.44
2019-04-14T03:01:02.839Z,4.46
2019-04-14T03:06:10.440Z,4.46
2019-04-14T03:11:26.963Z,4.46
2019-04-14T03:13:44.971Z,4.47
2019-04-14T03:16:23.540Z,4.49
2019-04-14T03:32:23.538Z,4.57
2019-04-14T03:34:52.078Z,4.56
2019-04-14T03:37:37.649Z,4.54
2019-04-14T03:42:31.328Z,4.52
2019-04-14T03:45:00.520Z,4.52
2019-04-14T03:50:09.710Z,4.55
2019-04-14T03:55:05.552Z,4.60
2019-04-14T03:57:27.031Z,4.60
2019-04-14T03:59:58.917Z,4.58
2019-04-14T04:02:31.599Z,4.53
2019-04-14T04:05:04.325Z,4.55
2019-04-14T04:07:37.047Z,4.54
2019-04-14T04:10:11.497Z,4.55
2019-04-14T04:12:44.463Z,4.57
2019-04-14T04:15:17.063Z,4.61
2019-04-14T04:17:51.672Z,4.60
2019-04-14T04:20:26.369Z,4.60
2019-04-14T04:23:07.388Z,4.63
2019-04-14T04:25:42.199Z,4.65
2019-04-14T04:28:14.515Z,4.63
2019-04-14T04:30:51.851Z,4.65
2019-04-14T04:33:42.338Z,4.69
2019-04-14T04:36:29.159Z,4.68
2019-04-14T04:39:03.942Z,4.67
2019-04-14T04:41:36.977Z,4.72
2019-04-14T04:44:09.655Z,4.72
2019-04-14T04:46:43.722Z,4.73
2019-04-14T04:49:21.753Z,4.73
2019-04-14T04:51:53.039Z,4.77
2019-04-14T04:54:27.830Z,4.78
2019-04-14T04:57:01.041Z,4.80
2019-04-14T04:59:34.360Z,4.87
2019-04-14T05:02:07.110Z,4.89
2019-04-14T05:04:39.786Z,4.89
2019-04-14T05:07:12.521Z,4.91
2019-04-14T05:09:46.935Z,4.90
2019-04-14T05:12:24.253Z,4.92
2019-04-14T05:15:00.986Z,4.97
2019-04-14T05:17:38.909Z,4.99
2019-04-14T05:20:12.045Z,5.00
2019-04-14T05:22:44.716Z,5.07
2019-04-14T05:25:17.405Z,5.08
2019-04-14T05:27:50.079Z,5.17
2019-04-14T05:30:22.767Z,5.24
2019-04-14T05:32:56.512Z,5.30
2019-04-14T05:35:29.448Z,5.38
2019-04-14T05:38:02.183Z,5.46
2019-04-14T05:40:34.492Z,5.54
2019-04-14T05:43:07.133Z,5.63
2019-04-14T05:45:39.852Z,5.60
2019-04-14T05:48:12.098Z,5.72
2019-04-14T05:50:44.802Z,5.72
2019-04-14T05:53:17.524Z,5.77
2019-04-14T05:55:50.422Z,5.83
2019-04-14T05:58:23.292Z,5.77
2019-04-14T06:00:55.926Z,5.80
2019-04-14T06:03:29.835Z,5.85
2019-04-14T06:06:03.612Z,5.90
2019-04-14T06:08:36.224Z,5.91
2019-04-14T06:11:08.906Z,5.97
2019-04-14T06:13:41.639Z,6.08
2019-04-14T06:16:14.358Z,6.14
2019-04-14T06:18:47.036Z,6.19
2019-04-14T06:21:19.721Z,6.29
2019-04-14T06:23:52.401Z,6.41
2019-04-14T06:26:24.970Z,6.42
2019-04-14T06:28:57.219Z,6.53
2019-04-14T06:31:47.544Z,6.65
2019-04-14T06:34:21.747Z,6.75
2019-04-14T06:36:59.036Z,6.68
2019-04-14T06:39:39.183Z,6.70
2019-04-14T06:42:11.492Z,6.77
2019-04-14T06:44:43.728Z,6.76
2019-04-14T06:47:16.411Z,6.78
2019-04-14T06:49:49.426Z,6.67
2019-04-14T06:52:22.489Z,6.77
2019-04-14T06:54:55.156Z,6.76
2019-04-14T06:57:27.836Z,6.79
2019-04-14T07:00:00.075Z,6.70
2019-04-14T07:02:32.791Z,6.60
2019-04-14T07:05:07.116Z,6.64
2019-04-14T07:07:39.422Z,6.61
2019-04-14T07:10:12.062Z,6.60
2019-04-14T07:12:44.366Z,6.49
2019-04-14T07:15:17.009Z,6.33
2019-04-14T07:17:49.680Z,6.35
2019-04-14T07:20:22.253Z,6.31
2019-04-14T07:22:54.936Z,6.31
2019-04-14T07:25:27.626Z,6.23
2019-04-14T07:28:00.142Z,6.25
2019-04-14T07:30:47.406Z,6.26
2019-04-14T07:33:31.648Z,6.28
2019-04-14T07:36:12.737Z,6.33
2019-04-14T07:38:46.856Z,6.30
2019-04-14T07:41:29.881Z,6.24
2019-04-14T07:44:04.073Z,6.26
2019-04-14T07:46:56.140Z,6.29
2019-04-14T07:49:42.418Z,6.36
2019-04-14T07:52:28.613Z,6.49
2019-04-14T07:55:00.985Z,6.61
2019-04-14T07:57:53.541Z,6.71
2019-04-14T08:00:31.644Z,6.84
2019-04-14T08:03:07.142Z,6.97
2019-04-14T08:05:41.405Z,7.07
2019-04-14T08:08:13.647Z,7.07
2019-04-14T08:10:46.357Z,7.02
2019-04-14T08:13:19.025Z,7.06
2019-04-14T08:15:51.565Z,7.05
2019-04-14T08:18:24.050Z,7.17
2019-04-14T08:20:56.765Z,7.20
2019-04-14T08:23:29.450Z,7.28
2019-04-14T08:26:02.127Z,7.45
2019-04-14T08:28:34.802Z,7.64
2019-04-14T08:31:07.534Z,7.69
2019-04-14T08:33:40.148Z,7.85
2019-04-14T08:36:13.858Z,8.01
2019-04-14T08:38:46.433Z,8.28
2019-04-14T08:41:19.119Z,8.29
2019-04-14T08:44:09.300Z,8.44
2019-04-14T08:46:42.259Z,8.72
2019-04-14T08:49:31.152Z,8.69
2019-04-14T08:52:11.512Z,8.78
2019-04-14T08:54:55.962Z,9.08
2019-04-14T08:57:45.234Z,9.09
2019-04-14T09:00:26.303Z,9.08
2019-04-14T09:03:03.335Z,9.21
2019-04-14T09:05:37.495Z,9.29
2019-04-14T09:08:17.973Z,9.46
2019-04-14T09:10:54.635Z,9.68
2019-04-14T09:13:26.940Z,9.90
2019-04-14T09:15:59.590Z,9.98
2019-04-14T09:18:32.371Z,10.16
2019-04-14T09:21:06.279Z,10.04
2019-04-14T09:23:39.056Z,10.61
2019-04-14T09:26:11.736Z,10.93
2019-04-14T09:28:44.419Z,11.36
2019-04-14T09:31:17.094Z,11.41
2019-04-14T09:33:49.774Z,11.13
2019-04-14T09:36:22.447Z,10.97
2019-04-14T09:38:56.925Z,10.99
2019-04-14T09:41:29.554Z,11.22
2019-04-14T09:44:02.225Z,11.45
2019-04-14T09:46:35.932Z,11.40
2019-04-14T09:49:08.617Z,11.64
2019-04-14T09:51:41.295Z,11.77
2019-04-14T09:54:14.073Z,11.89
2019-04-14T09:56:46.744Z,11.98
2019-04-14T09:59:19.059Z,12.20
2019-04-14T10:01:51.803Z,11.89
2019-04-14T10:04:24.487Z,13.08
2019-04-14T10:06:57.259Z,13.75
2019-04-14T10:09:30.256Z,14.03
2019-04-14T10:12:02.931Z,14.11
2019-04-14T10:14:35.601Z,14.22
2019-04-14T10:17:08.386Z,14.57
2019-04-14T10:19:41.071Z,14.33
2019-04-14T10:22:13.309Z,13.73
2019-04-14T10:24:45.925Z,13.78
2019-04-14T10:27:18.692Z,13.60
2019-04-14T10:29:51.377Z,13.17
2019-04-14T10:32:24.053Z,12.73
2019-04-14T10:34:57.917Z,12.83
2019-04-14T10:37:30.532Z,13.08
2019-04-14T10:40:05.962Z,13.52
2019-04-14T10:42:38.965Z,13.82
2019-04-14T10:45:11.781Z,13.88
2019-04-14T10:47:44.635Z,14.02
2019-04-14T10:50:29.989Z,14.24
2019-04-14T10:52:51.502Z,14.58
2019-04-14T10:55:24.199Z,15.09
2019-04-14T10:57:56.883Z,15.50
2019-04-14T11:00:29.529Z,15.32
2019-04-14T11:03:02.138Z,15.02
2019-04-14T11:05:53.454Z,15.55
2019-04-14T11:08:26.233Z,15.85
2019-04-14T11:10:59.214Z,15.85
2019-04-14T11:13:31.804Z,15.73
2019-04-14T11:16:04.486Z,15.88
2019-04-14T11:18:37.158Z,15.96
2019-04-14T11:21:09.837Z,16.10
2019-04-14T11:23:42.525Z,16.16
2019-04-14T11:26:14.828Z,16.48
2019-04-14T11:28:48.690Z,16.48
2019-04-14T11:31:25.683Z,16.22
2019-04-14T11:34:03.060Z,16.55
2019-04-14T11:36:40.254Z,16.72
2019-04-14T11:39:14.065Z,16.00
2019-04-14T11:41:46.888Z,16.49
2019-04-14T11:44:19.823Z,16.38
2019-04-14T11:46:52.164Z,16.67
2019-04-14T11:49:25.590Z,16.72
2019-04-14T11:51:58.478Z,17.04
2019-04-14T11:54:31.146Z,16.89
2019-04-14T11:57:03.841Z,16.45
2019-04-14T11:59:38.328Z,16.46
2019-04-14T12:02:21.425Z,16.29
2019-04-14T12:05:04.290Z,16.81
2019-04-14T12:07:40.978Z,16.34
2019-04-14T12:10:14.989Z,16.65
2019-04-14T12:12:47.761Z,16.89
2019-04-14T12:15:20.801Z,17.05
2019-04-14T12:17:53.525Z,16.86
2019-04-14T12:20:26.211Z,16.97
2019-04-14T12:22:58.748Z,17.29
2019-04-14T12:25:31.369Z,17.86
2019-04-14T12:28:04.764Z,17.79
2019-04-14T12:30:37.740Z,18.19
2019-04-14T12:33:10.732Z,18.14
2019-04-14T12:35:43.207Z,17.55
2019-04-14T12:38:15.887Z,17.44
2019-04-14T12:40:50.045Z,17.54
2019-04-14T12:43:30.970Z,17.33
2019-04-14T12:46:20.546Z,17.43
2019-04-14T12:49:09.720Z,18.01
2019-04-14T12:51:46.687Z,18.00
2019-04-14T12:54:21.021Z,17.95
2019-04-14T12:56:53.747Z,17.23
2019-04-14T12:59:29.327Z,17.73
2019-04-14T13:02:07.755Z,17.65
2019-04-14T13:04:40.524Z,17.75
2019-04-14T13:07:13.210Z,17.55
2019-04-14T13:09:47.016Z,17.55
2019-04-14T13:12:19.689Z,17.66
2019-04-14T13:14:52.377Z,17.60
2019-04-14T13:17:25.348Z,18.02
2019-04-14T13:19:57.898Z,18.54
2019-04-14T13:22:34.132Z,18.15
2019-04-14T13:25:07.084Z,18.55
2019-04-14T13:27:39.455Z,19.13
2019-04-14T13:30:14.249Z,19.49
2019-04-14T13:32:46.490Z,19.52
2019-04-14T13:35:18.929Z,18.77
2019-04-14T13:37:51.579Z,18.78
2019-04-14T13:40:23.874Z,19.00
2019-04-14T13:42:56.570Z,19.35
2019-04-14T13:45:29.308Z,20.10
2019-04-14T13:48:01.989Z,19.27
2019-04-14T13:50:34.686Z,19.53
2019-04-14T13:53:07.341Z,18.50
2019-04-14T13:55:40.026Z,19.61
2019-04-14T13:58:12.700Z,19.48
2019-04-14T14:00:45.387Z,19.95
2019-04-14T14:03:18.060Z,20.21
2019-04-14T14:05:51.357Z,19.97
2019-04-14T14:08:24.033Z,19.93
2019-04-14T14:10:58.342Z,20.44
2019-04-14T14:13:38.501Z,20.57
2019-04-14T14:16:12.822Z,18.86
2019-04-14T14:18:56.147Z,18.28
2019-04-14T14:21:31.381Z,19.05
2019-04-14T14:24:17.686Z,18.92
2019-04-14T14:26:51.551Z,18.45
2019-04-14T14:29:23.691Z,19.24
2019-04-14T14:31:57.671Z,19.69
2019-04-14T14:34:30.352Z,19.77
2019-04-14T14:37:03.022Z,19.35
2019-04-14T14:39:36.220Z,19.76
2019-04-14T14:42:08.897Z,20.08
2019-04-14T14:44:45.878Z,19.74
2019-04-14T14:47:20.101Z,19.57
2019-04-14T14:49:54.316Z,19.65
2019-04-14T14:52:27.309Z,20.11
2019-04-14T14:54:59.978Z,20.33
2019-04-14T14:57:32.277Z,19.89
2019-04-14T15:00:10.750Z,20.11
2019-04-14T15:02:43.431Z,20.60
2019-04-14T15:05:16.419Z,21.45
2019-04-14T15:07:49.100Z,20.94
2019-04-14T15:10:21.781Z,19.36
2019-04-14T15:12:54.467Z,19.23
2019-04-14T15:15:27.173Z,20.08
2019-04-14T15:17:59.916Z,20.16
2019-04-14T15:20:32.711Z,19.38
2019-04-14T15:23:05.989Z,19.64
2019-04-14T15:25:38.671Z,20.04
2019-04-14T15:28:11.359Z,19.19
2019-04-14T15:30:44.038Z,18.88
2019-04-14T15:33:16.712Z,18.58
2019-04-14T15:35:49.386Z,18.65
2019-04-14T15:38:21.973Z,18.61
2019-04-14T15:40:54.215Z,17.93
2019-04-14T15:43:26.508Z,18.50
2019-04-14T15:45:59.195Z,18.58
2019-04-14T15:48:31.909Z,18.00
2019-04-14T15:51:04.553Z,18.19
2019-04-14T15:53:38.411Z,17.50
2019-04-14T15:56:12.865Z,17.79
2019-04-14T15:58:50.168Z,17.38
2019-04-14T16:01:30.415Z,17.59
2019-04-14T16:04:04.648Z,17.89
2019-04-14T16:06:47.860Z,17.84
2019-04-14T16:09:24.703Z,18.29
2019-04-14T16:12:02.872Z,18.31
2019-04-14T16:14:37.580Z,18.28
2019-04-14T16:17:28.182Z,18.42
2019-04-14T16:20:11.496Z,17.52
2019-04-14T16:22:44.277Z,17.69
2019-04-14T16:25:16.580Z,18.24
2019-04-14T16:28:03.060Z,17.96
2019-04-14T16:30:40.133Z,17.36
2019-04-14T16:33:14.347Z,17.45
2019-04-14T16:35:48.559Z,17.35
2019-04-14T16:38:21.143Z,17.65
2019-04-14T16:40:54.329Z,17.34
2019-04-14T16:43:27.121Z,16.73
2019-04-14T16:45:59.801Z,17.18
2019-04-14T16:48:32.473Z,16.94
2019-04-14T16:51:06.173Z,17.39
2019-04-14T16:53:40.596Z,17.35
2019-04-14T16:56:14.913Z,16.70
2019-04-14T16:58:48.729Z,16.87
2019-04-14T17:01:28.721Z,16.99
2019-04-14T17:04:01.458Z,16.54
2019-04-14T17:06:34.128Z,15.90
2019-04-14T17:09:08.958Z,14.67
2019-04-14T17:11:43.185Z,13.74
2019-04-14T17:14:17.434Z,13.39
2019-04-14T17:16:57.501Z,12.91
2019-04-14T17:19:37.922Z,12.69
2019-04-14T17:22:15.299Z,12.50
2019-04-14T17:24:55.343Z,12.37
2019-04-14T17:27:29.212Z,12.14
2019-04-14T17:30:22.624Z,11.92
2019-04-14T17:33:04.100Z,11.76
2019-04-14T17:35:54.409Z,11.66
2019-04-14T17:38:29.204Z,11.47
2019-04-14T17:41:21.406Z,11.32
2019-04-14T17:44:06.933Z,11.19
2019-04-14T17:47:12.203Z,10.98
2019-04-14T17:49:53.251Z,10.89
2019-04-14T17:52:46.463Z,10.75
2019-04-14T17:55:34.020Z,10.58
2019-04-14T17:58:23.329Z,10.45
2019-04-14T18:01:12.120Z,10.38
2019-04-14T18:04:04.203Z,10.23
2019-04-14T18:06:58.415Z,10.05
2019-04-14T18:10:01.932Z,9.96
2019-04-14T18:12:49.847Z,9.83
2019-04-14T18:15:50.042Z,9.69
2019-04-14T18:18:46.411Z,9.56
2019-04-14T18:21:39.650Z,9.57
2019-04-14T18:24:41.232Z,9.52
2019-04-14T18:27:17.397Z,9.46
2019-04-14T18:30:07.712Z,9.41
2019-04-14T18:33:22.585Z,9.34
2019-04-14T18:36:19.551Z,9.26
2019-04-14T18:39:02.573Z,9.19
2019-04-14T18:41:58.386Z,9.16
2019-04-14T18:44:49.551Z,9.16
2019-04-14T18:47:32.984Z,9.11
2019-04-14T18:50:19.962Z,9.01
2019-04-14T18:53:07.909Z,8.95
2019-04-14T18:55:53.540Z,8.95
2019-04-14T18:58:52.636Z,8.90
2019-04-14T19:01:36.691Z,8.86
2019-04-14T19:04:15.775Z,8.90
2019-04-14T19:06:57.764Z,8.95
2019-04-14T19:09:37.506Z,8.96
2019-04-14T19:12:25.835Z,8.94
2019-04-14T19:15:17.708Z,8.81
2019-04-14T19:18:05.827Z,8.81
2019-04-14T19:20:47.251Z,8.82
2019-04-14T19:23:32.907Z,8.80
2019-04-14T19:26:16.303Z,8.75
2019-04-14T19:28:57.031Z,8.75
2019-04-14T19:31:43.913Z,8.68
2019-04-14T19:34:19.658Z,8.66
2019-04-14T19:36:59.878Z,8.60
2019-04-14T19:39:32.502Z,8.55
2019-04-14T19:42:05.165Z,8.52
2019-04-14T19:44:37.830Z,8.44
2019-04-14T19:47:11.248Z,8.44
2019-04-14T19:49:44.533Z,8.33
2019-04-14T19:52:20.552Z,8.43
2019-04-14T19:54:53.008Z,8.39
2019-04-14T19:57:25.668Z,8.39
2019-04-14T19:59:58.229Z,8.32
2019-04-14T20:02:30.957Z,8.24
2019-04-14T20:05:03.236Z,8.21
2019-04-14T20:07:35.757Z,8.18
2019-04-14T20:10:09.966Z,8.13
2019-04-14T20:12:42.646Z,8.11
2019-04-14T20:15:16.965Z,8.05
2019-04-14T20:17:53.953Z,7.96
2019-04-14T20:20:28.259Z,7.91
2019-04-14T20:23:10.325Z,7.85
2019-04-14T20:25:47.450Z,7.77
2019-04-14T20:28:21.710Z,7.76
2019-04-14T20:30:55.512Z,7.66
2019-04-14T20:33:27.823Z,7.63
2019-04-14T20:36:00.412Z,7.55
2019-04-14T20:38:33.088Z,7.43
2019-04-14T20:41:05.778Z,7.32
2019-04-14T20:43:38.451Z,7.27
2019-04-14T20:46:10.678Z,7.19
2019-04-14T20:48:43.402Z,7.16
2019-04-14T20:51:16.893Z,7.11
2019-04-14T20:53:50.288Z,7.02
2019-04-14T20:56:22.968Z,6.99
2019-04-14T20:58:55.270Z,6.94
2019-04-14T21:01:29.517Z,6.87
2019-04-14T21:04:09.487Z,6.84
2019-04-14T21:06:43.724Z,6.74
2019-04-14T21:09:20.572Z,6.73
2019-04-14T21:12:13.042Z,6.65
2019-04-14T21:14:46.909Z,6.62
2019-04-14T21:17:38.982Z,6.49
2019-04-14T21:20:13.246Z,6.42
2019-04-14T21:23:03.282Z,6.38
2019-04-14T21:25:44.575Z,6.31
2019-04-14T21:28:25.954Z,6.27
2019-04-14T21:31:03.140Z,6.29
2019-04-14T21:33:47.383Z,6.21
2019-04-14T21:36:36.648Z,6.17
2019-04-14T21:39:11.791Z,6.11
2019-04-14T21:41:46.521Z,6.07
2019-04-14T21:44:18.659Z,6.00
2019-04-14T21:46:51.358Z,5.99
2019-04-14T21:49:24.048Z,5.94
2019-04-14T21:51:59.032Z,5.97
2019-04-14T21:54:31.658Z,5.88
2019-04-14T21:57:13.247Z,5.81
2019-04-14T21:59:48.692Z,5.74
2019-04-14T22:02:40.001Z,5.68
2019-04-14T22:05:23.456Z,5.66
2019-04-14T22:07:55.820Z,5.60
2019-04-14T22:10:32.793Z,5.52
2019-04-14T22:13:05.467Z,5.44
2019-04-14T22:15:38.799Z,5.41
2019-04-14T22:18:11.040Z,5.35
2019-04-14T22:20:43.697Z,5.31
2019-04-14T22:23:16.389Z,5.26
2019-04-14T22:25:48.825Z,5.21
2019-04-14T22:28:21.541Z,5.16
2019-04-14T22:30:54.115Z,5.10
2019-04-14T22:33:26.878Z,5.03
2019-04-14T22:35:59.476Z,4.99
2019-04-14T22:38:32.005Z,4.96
2019-04-14T22:41:05.942Z,4.93
2019-04-14T22:43:38.761Z,4.86
2019-04-14T22:46:11.419Z,4.78
2019-04-14T22:48:44.097Z,4.75
2019-04-14T22:51:16.777Z,4.70
2019-04-14T22:53:49.348Z,4.63
2019-04-14T22:56:21.574Z,4.62
2019-04-14T22:58:54.313Z,4.59
2019-04-14T23:01:28.521Z,4.52
2019-04-14T23:04:11.674Z,4.49
2019-04-14T23:07:02.545Z,4.43
2019-04-14T23:09:35.207Z,4.35
2019-04-14T23:12:10.650Z,4.31
2019-04-14T23:14:42.643Z,4.29
2019-04-14T23:17:16.827Z,4.25
2019-04-14T23:19:56.783Z,4.21
2019-04-14T23:22:30.997Z,4.21
2019-04-14T23:25:03.674Z,4.13
2019-04-14T23:27:36.362Z,4.04
2019-04-14T23:30:09.755Z,4.01
2019-04-14T23:32:42.326Z,3.95
2019-04-14T23:35:15.007Z,3.94
2019-04-14T23:37:47.788Z,3.88
2019-04-14T23:40:20.570Z,3.89
2019-04-14T23:42:53.245Z,3.85
2019-04-14T23:45:26.434Z,3.81
2019-04-14T23:47:58.890Z,3.80
2019-04-14T23:50:31.088Z,3.75
2019-04-14T23:53:04.015Z,3.71
2019-04-14T23:55:36.839Z,3.69
2019-04-14T23:58:09.316Z,3.61
